sensor_id;sensor_type;location;lat;lon;timestamp;P1;durP1;ratioP1;P2;durP2;ratioP2
17310;SDS011;8773;43.300;0.394;2023-06-14T00:01:11;1157.05;;;999.90;;
17310;SDS011;8773;43.300;0.394;2023-06-14T00:03:39;1153.07;;;999.90;;
17310;SDS011;8773;43.300;0.394;2023-06-14T00:06:06;1152.82;;;999.90;;
17310;SDS011;8773;43.300;0.394;2023-06-14T00:08:34;1160.47;;;999.90;;
17310;SDS011;8773;43.300;0.394;2023-06-14T00:11:01;1167.53;;;999.90;;
17310;SDS011;8773;43.300;0.394;2023-06-14T00:13:30;1149.90;;;999.90;;
17310;SDS011;8773;43.300;0.394;2023-06-14T00:15:57;1159.60;;;999.90;;
17310;SDS011;8773;43.300;0.394;2023-06-14T00:18:25;1158.10;;;999.90;;
17310;SDS011;8773;43.300;0.394;2023-06-14T00:20:52;1158.90;;;999.90;;
17310;SDS011;8773;43.300;0.394;2023-06-14T00:23:19;1155.05;;;999.90;;
17310;SDS011;8773;43.300;0.394;2023-06-14T00:25:47;1157.13;;;999.90;;
17310;SDS011;8773;43.300;0.394;2023-06-14T00:28:14;1163.50;;;999.90;;
17310;SDS011;8773;43.300;0.394;2023-06-14T00:30:43;1152.30;;;999.90;;
17310;SDS011;8773;43.300;0.394;2023-06-14T00:33:11;1149.70;;;999.90;;
17310;SDS011;8773;43.300;0.394;2023-06-14T00:35:38;1150.72;;;999.90;;
17310;SDS011;8773;43.300;0.394;2023-06-14T00:38:05;1152.22;;;999.90;;
17310;SDS011;8773;43.300;0.394;2023-06-14T00:40:33;1159.38;;;999.90;;
17310;SDS011;8773;43.300;0.394;2023-06-14T00:43:00;1154.97;;;999.90;;
17310;SDS011;8773;43.300;0.394;2023-06-14T00:45:28;1157.67;;;999.90;;
17310;SDS011;8773;43.300;0.394;2023-06-14T00:47:57;1149.93;;;999.90;;
17310;SDS011;8773;43.300;0.394;2023-06-14T00:50:25;1150.95;;;999.90;;
17310;SDS011;8773;43.300;0.394;2023-06-14T00:52:52;1157.65;;;999.90;;
17310;SDS011;8773;43.300;0.394;2023-06-14T00:55:20;1154.43;;;999.90;;
17310;SDS011;8773;43.300;0.394;2023-06-14T00:57:48;1158.53;;;999.90;;
17310;SDS011;8773;43.300;0.394;2023-06-14T01:00:16;1154.00;;;999.90;;
17310;SDS011;8773;43.300;0.394;2023-06-14T01:02:44;1163.00;;;999.90;;
17310;SDS011;8773;43.300;0.394;2023-06-14T01:05:13;1155.10;;;999.90;;
17310;SDS011;8773;43.300;0.394;2023-06-14T01:07:43;1158.47;;;999.90;;
17310;SDS011;8773;43.300;0.394;2023-06-14T01:10:27;1163.38;;;999.90;;
17310;SDS011;8773;43.300;0.394;2023-06-14T01:13:03;1157.60;;;999.90;;
17310;SDS011;8773;43.300;0.394;2023-06-14T01:15:37;1159.40;;;999.90;;
17310;SDS011;8773;43.300;0.394;2023-06-14T01:18:06;1168.75;;;999.90;;
17310;SDS011;8773;43.300;0.394;2023-06-14T01:20:35;1156.25;;;999.90;;
17310;SDS011;8773;43.300;0.394;2023-06-14T01:23:04;1158.40;;;999.90;;
17310;SDS011;8773;43.300;0.394;2023-06-14T01:25:32;1157.10;;;999.90;;
17310;SDS011;8773;43.300;0.394;2023-06-14T01:28:00;1147.65;;;999.90;;
17310;SDS011;8773;43.300;0.394;2023-06-14T01:30:29;1151.68;;;999.90;;
17310;SDS011;8773;43.300;0.394;2023-06-14T01:32:59;1154.07;;;999.90;;
17310;SDS011;8773;43.300;0.394;2023-06-14T01:35:27;1150.80;;;999.90;;
17310;SDS011;8773;43.300;0.394;2023-06-14T01:37:54;1149.20;;;999.90;;
17310;SDS011;8773;43.300;0.394;2023-06-14T01:40:24;1146.63;;;999.90;;
17310;SDS011;8773;43.300;0.394;2023-06-14T01:42:52;1151.73;;;999.90;;
17310;SDS011;8773;43.300;0.394;2023-06-14T01:45:20;1156.75;;;999.90;;
17310;SDS011;8773;43.300;0.394;2023-06-14T01:47:48;1148.60;;;999.90;;
17310;SDS011;8773;43.300;0.394;2023-06-14T01:50:16;1157.40;;;999.90;;
17310;SDS011;8773;43.300;0.394;2023-06-14T01:52:45;1141.93;;;999.90;;
17310;SDS011;8773;43.300;0.394;2023-06-14T01:55:13;1152.50;;;999.90;;
17310;SDS011;8773;43.300;0.394;2023-06-14T01:57:42;1154.72;;;999.90;;
17310;SDS011;8773;43.300;0.394;2023-06-14T02:00:10;1157.03;;;999.90;;
17310;SDS011;8773;43.300;0.394;2023-06-14T02:02:39;1152.28;;;999.90;;
17310;SDS011;8773;43.300;0.394;2023-06-14T02:05:06;1148.55;;;999.90;;
17310;SDS011;8773;43.300;0.394;2023-06-14T02:07:34;1145.32;;;999.90;;
17310;SDS011;8773;43.300;0.394;2023-06-14T02:10:01;1145.45;;;999.90;;
17310;SDS011;8773;43.300;0.394;2023-06-14T02:12:29;1143.95;;;999.90;;
17310;SDS011;8773;43.300;0.394;2023-06-14T02:14:58;1147.07;;;999.90;;
17310;SDS011;8773;43.300;0.394;2023-06-14T02:17:25;1145.53;;;999.90;;
17310;SDS011;8773;43.300;0.394;2023-06-14T02:19:52;1153.78;;;999.90;;
17310;SDS011;8773;43.300;0.394;2023-06-14T02:22:20;1153.43;;;999.90;;
17310;SDS011;8773;43.300;0.394;2023-06-14T02:24:47;1138.88;;;999.90;;
17310;SDS011;8773;43.300;0.394;2023-06-14T02:27:20;1146.55;;;999.90;;
17310;SDS011;8773;43.300;0.394;2023-06-14T02:29:47;1151.03;;;999.90;;
17310;SDS011;8773;43.300;0.394;2023-06-14T02:32:16;1148.22;;;999.90;;
17310;SDS011;8773;43.300;0.394;2023-06-14T02:34:44;1154.55;;;999.90;;
17310;SDS011;8773;43.300;0.394;2023-06-14T02:37:11;1148.95;;;999.90;;
17310;SDS011;8773;43.300;0.394;2023-06-14T02:39:39;1148.93;;;999.90;;
17310;SDS011;8773;43.300;0.394;2023-06-14T02:42:06;1144.97;;;999.90;;
17310;SDS011;8773;43.300;0.394;2023-06-14T02:44:34;1148.85;;;999.90;;
17310;SDS011;8773;43.300;0.394;2023-06-14T02:47:01;1150.05;;;999.90;;
17310;SDS011;8773;43.300;0.394;2023-06-14T02:49:30;1145.03;;;999.90;;
17310;SDS011;8773;43.300;0.394;2023-06-14T02:51:57;1145.70;;;999.90;;
17310;SDS011;8773;43.300;0.394;2023-06-14T02:54:25;1151.32;;;999.90;;
17310;SDS011;8773;43.300;0.394;2023-06-14T02:56:52;1147.43;;;999.90;;
17310;SDS011;8773;43.300;0.394;2023-06-14T02:59:20;1150.60;;;999.90;;
17310;SDS011;8773;43.300;0.394;2023-06-14T03:01:47;1151.22;;;999.90;;
17310;SDS011;8773;43.300;0.394;2023-06-14T03:04:15;1154.72;;;999.90;;
17310;SDS011;8773;43.300;0.394;2023-06-14T03:06:43;1144.60;;;999.90;;
17310;SDS011;8773;43.300;0.394;2023-06-14T03:09:11;1149.68;;;999.90;;
17310;SDS011;8773;43.300;0.394;2023-06-14T03:11:38;1148.07;;;999.90;;
17310;SDS011;8773;43.300;0.394;2023-06-14T03:14:06;1147.85;;;999.90;;
17310;SDS011;8773;43.300;0.394;2023-06-14T03:16:33;1147.25;;;999.90;;
17310;SDS011;8773;43.300;0.394;2023-06-14T03:19:01;1145.97;;;999.90;;
17310;SDS011;8773;43.300;0.394;2023-06-14T03:21:28;1144.80;;;999.90;;
17310;SDS011;8773;43.300;0.394;2023-06-14T03:23:57;1140.90;;;999.90;;
17310;SDS011;8773;43.300;0.394;2023-06-14T03:26:25;1145.43;;;999.90;;
17310;SDS011;8773;43.300;0.394;2023-06-14T03:28:52;1144.20;;;999.90;;
17310;SDS011;8773;43.300;0.394;2023-06-14T03:31:20;1144.07;;;999.90;;
17310;SDS011;8773;43.300;0.394;2023-06-14T03:33:47;1141.67;;;999.90;;
17310;SDS011;8773;43.300;0.394;2023-06-14T03:36:15;1145.95;;;999.90;;
17310;SDS011;8773;43.300;0.394;2023-06-14T03:38:42;1146.25;;;999.90;;
17310;SDS011;8773;43.300;0.394;2023-06-14T03:41:11;1165.28;;;999.90;;
17310;SDS011;8773;43.300;0.394;2023-06-14T03:43:38;1138.57;;;999.90;;
17310;SDS011;8773;43.300;0.394;2023-06-14T03:46:05;1147.35;;;999.90;;
17310;SDS011;8773;43.300;0.394;2023-06-14T03:48:33;1144.68;;;999.90;;
17310;SDS011;8773;43.300;0.394;2023-06-14T03:51:01;1143.43;;;999.90;;
17310;SDS011;8773;43.300;0.394;2023-06-14T03:53:28;1144.82;;;999.90;;
17310;SDS011;8773;43.300;0.394;2023-06-14T03:55:56;1149.25;;;999.90;;
17310;SDS011;8773;43.300;0.394;2023-06-14T03:58:25;1141.85;;;999.90;;
17310;SDS011;8773;43.300;0.394;2023-06-14T04:00:52;1152.73;;;999.90;;
17310;SDS011;8773;43.300;0.394;2023-06-14T04:03:19;1150.47;;;999.90;;
17310;SDS011;8773;43.300;0.394;2023-06-14T04:05:47;1152.03;;;999.90;;
17310;SDS011;8773;43.300;0.394;2023-06-14T04:08:14;1143.90;;;999.90;;
17310;SDS011;8773;43.300;0.394;2023-06-14T04:10:42;1152.53;;;999.90;;
17310;SDS011;8773;43.300;0.394;2023-06-14T04:13:09;1145.90;;;999.90;;
17310;SDS011;8773;43.300;0.394;2023-06-14T04:15:38;1142.00;;;999.90;;
17310;SDS011;8773;43.300;0.394;2023-06-14T04:18:06;1145.60;;;999.90;;
17310;SDS011;8773;43.300;0.394;2023-06-14T04:20:33;1147.35;;;999.90;;
17310;SDS011;8773;43.300;0.394;2023-06-14T04:23:10;1147.65;;;999.90;;
17310;SDS011;8773;43.300;0.394;2023-06-14T04:25:38;1147.60;;;999.90;;
17310;SDS011;8773;43.300;0.394;2023-06-14T04:28:06;1149.43;;;999.90;;
17310;SDS011;8773;43.300;0.394;2023-06-14T04:30:33;1142.85;;;999.90;;
17310;SDS011;8773;43.300;0.394;2023-06-14T04:33:02;1151.03;;;999.90;;
17310;SDS011;8773;43.300;0.394;2023-06-14T04:35:30;1141.63;;;999.90;;
17310;SDS011;8773;43.300;0.394;2023-06-14T04:37:57;1143.93;;;999.90;;
17310;SDS011;8773;43.300;0.394;2023-06-14T04:40:25;1143.43;;;999.90;;
17310;SDS011;8773;43.300;0.394;2023-06-14T04:42:52;1139.25;;;999.90;;
17310;SDS011;8773;43.300;0.394;2023-06-14T04:45:19;1153.15;;;999.90;;
17310;SDS011;8773;43.300;0.394;2023-06-14T04:47:48;1142.78;;;999.90;;
17310;SDS011;8773;43.300;0.394;2023-06-14T04:50:17;1149.55;;;999.90;;
17310;SDS011;8773;43.300;0.394;2023-06-14T04:52:45;1142.47;;;999.90;;
17310;SDS011;8773;43.300;0.394;2023-06-14T04:55:12;1145.90;;;999.90;;
17310;SDS011;8773;43.300;0.394;2023-06-14T04:57:40;1143.38;;;999.90;;
17310;SDS011;8773;43.300;0.394;2023-06-14T05:00:08;1146.97;;;999.90;;
17310;SDS011;8773;43.300;0.394;2023-06-14T05:02:36;1138.30;;;999.90;;
17310;SDS011;8773;43.300;0.394;2023-06-14T05:05:04;1147.70;;;999.90;;
17310;SDS011;8773;43.300;0.394;2023-06-14T05:07:33;1143.38;;;999.90;;
17310;SDS011;8773;43.300;0.394;2023-06-14T05:10:00;1149.87;;;999.90;;
17310;SDS011;8773;43.300;0.394;2023-06-14T05:12:28;1144.45;;;999.90;;
17310;SDS011;8773;43.300;0.394;2023-06-14T05:14:55;1139.90;;;999.90;;
17310;SDS011;8773;43.300;0.394;2023-06-14T05:17:23;1146.38;;;999.90;;
17310;SDS011;8773;43.300;0.394;2023-06-14T05:19:50;1153.20;;;999.90;;
17310;SDS011;8773;43.300;0.394;2023-06-14T05:22:18;1150.63;;;999.90;;
17310;SDS011;8773;43.300;0.394;2023-06-14T05:24:46;1148.40;;;999.90;;
17310;SDS011;8773;43.300;0.394;2023-06-14T05:27:14;1143.00;;;999.90;;
17310;SDS011;8773;43.300;0.394;2023-06-14T05:29:41;1153.70;;;999.90;;
17310;SDS011;8773;43.300;0.394;2023-06-14T05:32:09;1151.55;;;999.90;;
17310;SDS011;8773;43.300;0.394;2023-06-14T05:34:36;1154.80;;;999.90;;
17310;SDS011;8773;43.300;0.394;2023-06-14T05:37:04;1151.30;;;999.90;;
17310;SDS011;8773;43.300;0.394;2023-06-14T05:39:31;1157.93;;;999.90;;
17310;SDS011;8773;43.300;0.394;2023-06-14T05:42:00;1159.70;;;999.90;;
17310;SDS011;8773;43.300;0.394;2023-06-14T05:44:27;1154.53;;;999.90;;
17310;SDS011;8773;43.300;0.394;2023-06-14T05:46:55;1160.93;;;999.90;;
17310;SDS011;8773;43.300;0.394;2023-06-14T05:49:22;1154.93;;;999.90;;
17310;SDS011;8773;43.300;0.394;2023-06-14T05:51:50;1158.68;;;999.90;;
17310;SDS011;8773;43.300;0.394;2023-06-14T05:54:17;1156.13;;;999.90;;
17310;SDS011;8773;43.300;0.394;2023-06-14T05:56:44;1160.97;;;999.90;;
17310;SDS011;8773;43.300;0.394;2023-06-14T05:59:13;1160.83;;;999.90;;
17310;SDS011;8773;43.300;0.394;2023-06-14T06:01:41;1163.68;;;999.90;;
17310;SDS011;8773;43.300;0.394;2023-06-14T06:04:08;1163.75;;;999.90;;
17310;SDS011;8773;43.300;0.394;2023-06-14T06:06:36;1154.30;;;999.90;;
17310;SDS011;8773;43.300;0.394;2023-06-14T06:09:03;1156.05;;;999.90;;
17310;SDS011;8773;43.300;0.394;2023-06-14T06:11:31;1152.03;;;999.90;;
17310;SDS011;8773;43.300;0.394;2023-06-14T06:14:15;1153.63;;;999.90;;
17310;SDS011;8773;43.300;0.394;2023-06-14T06:16:43;1164.17;;;999.90;;
17310;SDS011;8773;43.300;0.394;2023-06-14T06:19:10;1150.00;;;999.90;;
17310;SDS011;8773;43.300;0.394;2023-06-14T06:21:38;1162.13;;;999.90;;
17310;SDS011;8773;43.300;0.394;2023-06-14T06:24:05;1159.07;;;999.90;;
17310;SDS011;8773;43.300;0.394;2023-06-14T06:26:33;1160.05;;;999.90;;
17310;SDS011;8773;43.300;0.394;2023-06-14T06:29:00;1154.40;;;999.90;;
17310;SDS011;8773;43.300;0.394;2023-06-14T06:31:29;1167.20;;;999.90;;
17310;SDS011;8773;43.300;0.394;2023-06-14T06:33:57;1154.07;;;999.90;;
17310;SDS011;8773;43.300;0.394;2023-06-14T06:36:24;1154.47;;;999.90;;
17310;SDS011;8773;43.300;0.394;2023-06-14T06:38:51;1160.18;;;999.90;;
17310;SDS011;8773;43.300;0.394;2023-06-14T06:41:19;1152.37;;;999.90;;
17310;SDS011;8773;43.300;0.394;2023-06-14T06:43:46;1159.65;;;999.90;;
17310;SDS011;8773;43.300;0.394;2023-06-14T06:46:14;1161.37;;;999.90;;
17310;SDS011;8773;43.300;0.394;2023-06-14T06:48:42;1166.18;;;999.90;;
17310;SDS011;8773;43.300;0.394;2023-06-14T06:51:10;1169.22;;;999.90;;
17310;SDS011;8773;43.300;0.394;2023-06-14T06:53:37;1164.65;;;999.90;;
17310;SDS011;8773;43.300;0.394;2023-06-14T06:56:11;1169.43;;;999.90;;
17310;SDS011;8773;43.300;0.394;2023-06-14T06:58:38;1157.20;;;999.90;;
17310;SDS011;8773;43.300;0.394;2023-06-14T07:01:06;1164.35;;;999.90;;
17310;SDS011;8773;43.300;0.394;2023-06-14T07:03:33;1162.95;;;999.90;;
17310;SDS011;8773;43.300;0.394;2023-06-14T07:06:02;1165.30;;;999.90;;
17310;SDS011;8773;43.300;0.394;2023-06-14T07:08:30;1168.55;;;999.90;;
17310;SDS011;8773;43.300;0.394;2023-06-14T07:10:57;1156.20;;;999.90;;
17310;SDS011;8773;43.300;0.394;2023-06-14T07:13:25;1158.10;;;999.90;;
17310;SDS011;8773;43.300;0.394;2023-06-14T07:15:54;1166.50;;;999.90;;
17310;SDS011;8773;43.300;0.394;2023-06-14T07:18:21;1165.40;;;999.90;;
17310;SDS011;8773;43.300;0.394;2023-06-14T07:20:49;1165.47;;;999.90;;
17310;SDS011;8773;43.300;0.394;2023-06-14T07:23:17;1164.80;;;999.90;;
17310;SDS011;8773;43.300;0.394;2023-06-14T07:25:45;1159.13;;;999.90;;
17310;SDS011;8773;43.300;0.394;2023-06-14T07:28:13;1173.35;;;999.90;;
17310;SDS011;8773;43.300;0.394;2023-06-14T07:30:40;1162.30;;;999.90;;
17310;SDS011;8773;43.300;0.394;2023-06-14T07:33:08;1161.65;;;999.90;;
17310;SDS011;8773;43.300;0.394;2023-06-14T07:35:35;1162.93;;;999.90;;
17310;SDS011;8773;43.300;0.394;2023-06-14T07:38:03;1156.65;;;999.90;;
17310;SDS011;8773;43.300;0.394;2023-06-14T07:40:31;1161.43;;;999.90;;
17310;SDS011;8773;43.300;0.394;2023-06-14T07:42:59;1151.38;;;999.90;;
17310;SDS011;8773;43.300;0.394;2023-06-14T07:45:26;1154.73;;;999.90;;
17310;SDS011;8773;43.300;0.394;2023-06-14T07:47:54;1161.90;;;999.90;;
17310;SDS011;8773;43.300;0.394;2023-06-14T07:50:21;1166.85;;;999.90;;
17310;SDS011;8773;43.300;0.394;2023-06-14T07:52:49;1160.65;;;999.90;;
17310;SDS011;8773;43.300;0.394;2023-06-14T07:55:16;1160.65;;;999.90;;
17310;SDS011;8773;43.300;0.394;2023-06-14T07:57:46;1160.40;;;999.90;;
17310;SDS011;8773;43.300;0.394;2023-06-14T08:00:14;1156.78;;;999.90;;
17310;SDS011;8773;43.300;0.394;2023-06-14T08:02:42;1165.15;;;999.90;;
17310;SDS011;8773;43.300;0.394;2023-06-14T08:05:10;1164.80;;;999.90;;
17310;SDS011;8773;43.300;0.394;2023-06-14T08:07:38;1158.45;;;999.90;;
17310;SDS011;8773;43.300;0.394;2023-06-14T08:10:06;1155.75;;;999.90;;
17310;SDS011;8773;43.300;0.394;2023-06-14T08:12:34;1155.27;;;999.90;;
17310;SDS011;8773;43.300;0.394;2023-06-14T08:15:03;1155.78;;;999.90;;
17310;SDS011;8773;43.300;0.394;2023-06-14T08:17:34;1151.20;;;999.90;;
17310;SDS011;8773;43.300;0.394;2023-06-14T08:20:02;1157.68;;;999.90;;
17310;SDS011;8773;43.300;0.394;2023-06-14T08:22:30;1147.57;;;999.90;;
17310;SDS011;8773;43.300;0.394;2023-06-14T08:24:58;1154.22;;;999.90;;
17310;SDS011;8773;43.300;0.394;2023-06-14T08:27:25;1150.55;;;999.90;;
17310;SDS011;8773;43.300;0.394;2023-06-14T08:29:56;1149.33;;;999.90;;
17310;SDS011;8773;43.300;0.394;2023-06-14T08:32:25;1151.85;;;999.90;;
17310;SDS011;8773;43.300;0.394;2023-06-14T08:34:52;1152.05;;;999.90;;
17310;SDS011;8773;43.300;0.394;2023-06-14T08:37:31;1154.25;;;999.90;;
17310;SDS011;8773;43.300;0.394;2023-06-14T08:39:59;1163.78;;;999.90;;
17310;SDS011;8773;43.300;0.394;2023-06-14T08:42:26;1161.15;;;999.90;;
17310;SDS011;8773;43.300;0.394;2023-06-14T08:44:58;1155.68;;;999.90;;
17310;SDS011;8773;43.300;0.394;2023-06-14T08:47:27;1145.00;;;999.90;;
17310;SDS011;8773;43.300;0.394;2023-06-14T08:49:55;1153.00;;;999.90;;
17310;SDS011;8773;43.300;0.394;2023-06-14T08:52:25;1149.57;;;999.90;;
17310;SDS011;8773;43.300;0.394;2023-06-14T08:54:57;1148.93;;;999.90;;
17310;SDS011;8773;43.300;0.394;2023-06-14T08:57:24;1153.15;;;999.90;;
17310;SDS011;8773;43.300;0.394;2023-06-14T08:59:53;1149.82;;;999.90;;
17310;SDS011;8773;43.300;0.394;2023-06-14T09:02:21;1147.53;;;999.90;;
17310;SDS011;8773;43.300;0.394;2023-06-14T09:04:49;1141.63;;;999.90;;
17310;SDS011;8773;43.300;0.394;2023-06-14T09:07:17;1145.20;;;999.90;;
17310;SDS011;8773;43.300;0.394;2023-06-14T09:09:44;1149.53;;;999.90;;
17310;SDS011;8773;43.300;0.394;2023-06-14T09:12:34;1151.30;;;999.90;;
17310;SDS011;8773;43.300;0.394;2023-06-14T09:15:02;1154.13;;;999.90;;
17310;SDS011;8773;43.300;0.394;2023-06-14T09:17:31;1153.90;;;999.90;;
17310;SDS011;8773;43.300;0.394;2023-06-14T09:20:02;1154.72;;;999.90;;
17310;SDS011;8773;43.300;0.394;2023-06-14T09:22:31;1157.85;;;999.90;;
17310;SDS011;8773;43.300;0.394;2023-06-14T09:24:58;8.35;;;6.00;;
17310;SDS011;8773;43.300;0.394;2023-06-14T09:27:26;7.35;;;5.90;;
17310;SDS011;8773;43.300;0.394;2023-06-14T09:29:55;11.32;;;7.47;;
17310;SDS011;8773;43.300;0.394;2023-06-14T09:32:22;8.93;;;6.15;;
17310;SDS011;8773;43.300;0.394;2023-06-14T09:34:50;9.18;;;6.60;;
17310;SDS011;8773;43.300;0.394;2023-06-14T09:37:29;354.45;;;333.58;;
17310;SDS011;8773;43.300;0.394;2023-06-14T09:39:57;1127.38;;;999.90;;
17310;SDS011;8773;43.300;0.394;2023-06-14T09:42:25;1136.97;;;999.90;;
17310;SDS011;8773;43.300;0.394;2023-06-14T09:44:53;1139.22;;;999.90;;
17310;SDS011;8773;43.300;0.394;2023-06-14T09:47:22;1144.50;;;999.90;;
17310;SDS011;8773;43.300;0.394;2023-06-14T09:49:51;1142.45;;;999.90;;
17310;SDS011;8773;43.300;0.394;2023-06-14T09:52:19;1143.10;;;999.90;;
17310;SDS011;8773;43.300;0.394;2023-06-14T09:54:49;1143.30;;;999.90;;
17310;SDS011;8773;43.300;0.394;2023-06-14T09:57:16;1145.00;;;999.90;;
17310;SDS011;8773;43.300;0.394;2023-06-14T09:59:48;1145.45;;;999.90;;
17310;SDS011;8773;43.300;0.394;2023-06-14T10:02:22;1153.87;;;999.90;;
17310;SDS011;8773;43.300;0.394;2023-06-14T10:04:55;1147.37;;;999.90;;
17310;SDS011;8773;43.300;0.394;2023-06-14T10:07:25;1146.60;;;999.90;;
17310;SDS011;8773;43.300;0.394;2023-06-14T10:09:55;1145.35;;;999.90;;
17310;SDS011;8773;43.300;0.394;2023-06-14T10:12:24;1146.00;;;999.90;;
17310;SDS011;8773;43.300;0.394;2023-06-14T10:14:52;1147.45;;;999.90;;
17310;SDS011;8773;43.300;0.394;2023-06-14T10:17:26;1150.47;;;999.90;;
17310;SDS011;8773;43.300;0.394;2023-06-14T10:20:04;1143.55;;;999.90;;
17310;SDS011;8773;43.300;0.394;2023-06-14T10:22:42;1148.05;;;999.90;;
17310;SDS011;8773;43.300;0.394;2023-06-14T10:25:27;1147.60;;;999.90;;
17310;SDS011;8773;43.300;0.394;2023-06-14T10:28:14;1155.00;;;999.90;;
17310;SDS011;8773;43.300;0.394;2023-06-14T10:31:02;1150.90;;;999.90;;
17310;SDS011;8773;43.300;0.394;2023-06-14T10:33:34;1158.03;;;999.90;;
17310;SDS011;8773;43.300;0.394;2023-06-14T10:36:09;1156.30;;;999.90;;
17310;SDS011;8773;43.300;0.394;2023-06-14T10:38:37;1155.88;;;999.90;;
17310;SDS011;8773;43.300;0.394;2023-06-14T10:41:06;1151.50;;;999.90;;
17310;SDS011;8773;43.300;0.394;2023-06-14T10:43:34;1168.10;;;999.90;;
17310;SDS011;8773;43.300;0.394;2023-06-14T10:46:14;1162.50;;;999.90;;
17310;SDS011;8773;43.300;0.394;2023-06-14T10:48:42;1157.07;;;999.90;;
17310;SDS011;8773;43.300;0.394;2023-06-14T10:51:16;1152.53;;;999.90;;
17310;SDS011;8773;43.300;0.394;2023-06-14T10:53:44;1144.30;;;999.90;;
17310;SDS011;8773;43.300;0.394;2023-06-14T10:56:24;1151.38;;;999.90;;
17310;SDS011;8773;43.300;0.394;2023-06-14T10:58:54;1151.53;;;999.90;;
17310;SDS011;8773;43.300;0.394;2023-06-14T11:01:23;1156.90;;;999.90;;
17310;SDS011;8773;43.300;0.394;2023-06-14T11:04:05;1156.22;;;999.90;;
17310;SDS011;8773;43.300;0.394;2023-06-14T11:09:25;1156.73;;;999.90;;
17310;SDS011;8773;43.300;0.394;2023-06-14T11:12:13;1155.03;;;999.90;;
17310;SDS011;8773;43.300;0.394;2023-06-14T11:14:42;1163.47;;;999.90;;
17310;SDS011;8773;43.300;0.394;2023-06-14T11:17:13;1154.00;;;999.90;;
17310;SDS011;8773;43.300;0.394;2023-06-14T11:19:41;1165.80;;;999.90;;
17310;SDS011;8773;43.300;0.394;2023-06-14T11:22:08;1157.05;;;999.90;;
17310;SDS011;8773;43.300;0.394;2023-06-14T11:24:36;1151.55;;;999.90;;
17310;SDS011;8773;43.300;0.394;2023-06-14T11:27:04;1151.18;;;999.90;;
17310;SDS011;8773;43.300;0.394;2023-06-14T11:29:33;1160.50;;;999.90;;
17310;SDS011;8773;43.300;0.394;2023-06-14T11:32:00;1152.47;;;999.90;;
17310;SDS011;8773;43.300;0.394;2023-06-14T11:34:28;1161.75;;;999.90;;
17310;SDS011;8773;43.300;0.394;2023-06-14T11:36:55;1168.00;;;999.90;;
17310;SDS011;8773;43.300;0.394;2023-06-14T11:39:24;1159.68;;;999.90;;
17310;SDS011;8773;43.300;0.394;2023-06-14T11:41:52;1160.50;;;999.90;;
17310;SDS011;8773;43.300;0.394;2023-06-14T11:44:19;1160.65;;;999.90;;
17310;SDS011;8773;43.300;0.394;2023-06-14T11:46:48;1166.87;;;999.90;;
17310;SDS011;8773;43.300;0.394;2023-06-14T11:49:15;1165.57;;;999.90;;
17310;SDS011;8773;43.300;0.394;2023-06-14T11:51:43;1176.82;;;999.90;;
17310;SDS011;8773;43.300;0.394;2023-06-14T11:54:10;1172.95;;;999.90;;
17310;SDS011;8773;43.300;0.394;2023-06-14T11:56:38;1178.85;;;999.90;;
17310;SDS011;8773;43.300;0.394;2023-06-14T11:59:06;1177.20;;;999.90;;
17310;SDS011;8773;43.300;0.394;2023-06-14T12:01:35;1179.53;;;999.90;;
17310;SDS011;8773;43.300;0.394;2023-06-14T12:04:05;1175.53;;;999.90;;
17310;SDS011;8773;43.300;0.394;2023-06-14T12:06:33;1162.57;;;999.90;;
17310;SDS011;8773;43.300;0.394;2023-06-14T12:09:03;1164.45;;;999.90;;
17310;SDS011;8773;43.300;0.394;2023-06-14T12:11:32;1166.82;;;999.90;;
17310;SDS011;8773;43.300;0.394;2023-06-14T12:14:02;1172.07;;;999.90;;
17310;SDS011;8773;43.300;0.394;2023-06-14T12:16:30;1170.18;;;999.90;;
17310;SDS011;8773;43.300;0.394;2023-06-14T12:21:46;196.13;;;183.67;;
17310;SDS011;8773;43.300;0.394;2023-06-14T12:24:14;4.72;;;4.32;;
17310;SDS011;8773;43.300;0.394;2023-06-14T12:26:42;7.55;;;4.00;;
17310;SDS011;8773;43.300;0.394;2023-06-14T12:29:09;4.78;;;4.40;;
17310;SDS011;8773;43.300;0.394;2023-06-14T12:31:37;7.45;;;4.85;;
17310;SDS011;8773;43.300;0.394;2023-06-14T12:34:05;5.72;;;4.07;;
17310;SDS011;8773;43.300;0.394;2023-06-14T12:36:33;5.05;;;3.97;;
17310;SDS011;8773;43.300;0.394;2023-06-14T12:39:01;6.53;;;4.20;;
17310;SDS011;8773;43.300;0.394;2023-06-14T12:41:29;4.30;;;3.67;;
17310;SDS011;8773;43.300;0.394;2023-06-14T12:43:56;5.10;;;3.85;;
17310;SDS011;8773;43.300;0.394;2023-06-14T12:46:24;5.35;;;3.78;;
17310;SDS011;8773;43.300;0.394;2023-06-14T12:48:51;5.50;;;3.83;;
17310;SDS011;8773;43.300;0.394;2023-06-14T12:51:18;3.53;;;3.22;;
17310;SDS011;8773;43.300;0.394;2023-06-14T12:53:47;4.20;;;3.80;;
17310;SDS011;8773;43.300;0.394;2023-06-14T12:56:15;5.75;;;3.40;;
17310;SDS011;8773;43.300;0.394;2023-06-14T12:58:42;4.07;;;3.78;;
17310;SDS011;8773;43.300;0.394;2023-06-14T13:01:10;5.75;;;3.65;;
17310;SDS011;8773;43.300;0.394;2023-06-14T13:03:37;4.00;;;3.70;;
17310;SDS011;8773;43.300;0.394;2023-06-14T13:06:05;5.70;;;4.03;;
17310;SDS011;8773;43.300;0.394;2023-06-14T13:08:32;5.45;;;3.53;;
17310;SDS011;8773;43.300;0.394;2023-06-14T13:11:01;5.22;;;3.47;;
17310;SDS011;8773;43.300;0.394;2023-06-14T13:13:28;3.67;;;3.28;;
17310;SDS011;8773;43.300;0.394;2023-06-14T13:15:56;3.72;;;3.50;;
17310;SDS011;8773;43.300;0.394;2023-06-14T13:18:23;6.18;;;3.55;;
17310;SDS011;8773;43.300;0.394;2023-06-14T13:20:50;5.68;;;3.70;;
17310;SDS011;8773;43.300;0.394;2023-06-14T13:23:18;4.30;;;3.58;;
17310;SDS011;8773;43.300;0.394;2023-06-14T13:25:45;4.15;;;3.75;;
17310;SDS011;8773;43.300;0.394;2023-06-14T13:28:14;4.03;;;3.63;;
17310;SDS011;8773;43.300;0.394;2023-06-14T13:30:41;4.07;;;3.67;;
17310;SDS011;8773;43.300;0.394;2023-06-14T13:33:09;5.88;;;3.72;;
17310;SDS011;8773;43.300;0.394;2023-06-14T13:35:36;4.57;;;3.53;;
17310;SDS011;8773;43.300;0.394;2023-06-14T13:38:04;4.40;;;3.28;;
17310;SDS011;8773;43.300;0.394;2023-06-14T13:40:31;7.00;;;4.00;;
17310;SDS011;8773;43.300;0.394;2023-06-14T13:42:59;9.85;;;3.88;;
17310;SDS011;8773;43.300;0.394;2023-06-14T13:45:27;4.50;;;3.20;;
17310;SDS011;8773;43.300;0.394;2023-06-14T13:47:55;4.85;;;3.70;;
17310;SDS011;8773;43.300;0.394;2023-06-14T13:50:22;6.70;;;2.90;;
17310;SDS011;8773;43.300;0.394;2023-06-14T13:52:50;4.78;;;3.58;;
17310;SDS011;8773;43.300;0.394;2023-06-14T13:55:17;4.38;;;3.22;;
17310;SDS011;8773;43.300;0.394;2023-06-14T13:57:45;3.05;;;2.83;;
17310;SDS011;8773;43.300;0.394;2023-06-14T14:00:13;4.03;;;3.08;;
17310;SDS011;8773;43.300;0.394;2023-06-14T14:02:43;4.20;;;3.20;;
17310;SDS011;8773;43.300;0.394;2023-06-14T14:05:10;3.30;;;3.00;;
17310;SDS011;8773;43.300;0.394;2023-06-14T14:07:37;4.07;;;3.17;;
17310;SDS011;8773;43.300;0.394;2023-06-14T14:10:05;12.23;;;8.85;;
17310;SDS011;8773;43.300;0.394;2023-06-14T14:12:34;5.78;;;3.13;;
17310;SDS011;8773;43.300;0.394;2023-06-14T14:15:01;3.85;;;3.40;;
17310;SDS011;8773;43.300;0.394;2023-06-14T14:17:29;3.17;;;2.78;;
17310;SDS011;8773;43.300;0.394;2023-06-14T14:19:58;3.50;;;3.20;;